createdAt,value
2022-10-19T00:01:05.071Z,15.96
2022-10-19T00:03:34.366Z,15.96
2022-10-19T00:06:12.477Z,15.95
2022-10-19T00:08:40.591Z,15.97
2022-10-19T00:11:08.838Z,15.99
2022-10-19T00:13:36.895Z,15.98
2022-10-19T00:16:11.426Z,15.94
2022-10-19T00:18:40.245Z,15.93
2022-10-19T00:21:11.426Z,15.91
2022-10-19T00:23:39.658Z,15.88
2022-10-19T00:26:08.093Z,15.85
2022-10-19T00:28:36.286Z,15.81
2022-10-19T00:31:05.397Z,15.80
2022-10-19T00:33:33.493Z,15.80
2022-10-19T00:36:01.647Z,15.79
2022-10-19T00:38:31.045Z,15.79
2022-10-19T00:40:59.079Z,15.76
2022-10-19T00:43:31.356Z,15.79
2022-10-19T00:45:59.567Z,15.84
2022-10-19T00:48:31.017Z,15.77
2022-10-19T00:51:00.765Z,15.75
2022-10-19T00:53:31.757Z,15.73
2022-10-19T00:56:04.549Z,15.70
2022-10-19T00:58:33.075Z,15.72
2022-10-19T01:01:04.495Z,15.72
2022-10-19T01:03:33.150Z,15.75
2022-10-19T01:06:01.897Z,15.71
2022-10-19T01:08:31.706Z,15.69
2022-10-19T01:11:14.283Z,15.70
2022-10-19T01:13:51.469Z,15.66
2022-10-19T01:16:26.848Z,15.66
2022-10-19T01:19:04.034Z,15.63
2022-10-19T01:21:36.640Z,15.54
2022-10-19T01:24:43.111Z,15.48
2022-10-19T01:27:42.353Z,15.46
2022-10-19T01:30:16.540Z,15.44
2022-10-19T01:33:07.942Z,15.44
2022-10-19T01:35:43.703Z,15.45
2022-10-19T01:38:24.148Z,15.42
2022-10-19T01:40:58.977Z,15.38
2022-10-19T01:43:39.001Z,15.31
2022-10-19T01:46:14.576Z,15.29
2022-10-19T01:48:47.888Z,15.26
2022-10-19T01:51:21.698Z,15.22
2022-10-19T01:53:53.473Z,15.22
2022-10-19T01:56:25.777Z,15.27
2022-10-19T01:58:57.896Z,15.29
2022-10-19T02:01:31.642Z,15.29
2022-10-19T02:04:01.205Z,15.28
2022-10-19T02:06:30.238Z,15.26
2022-10-19T02:08:58.373Z,15.24
2022-10-19T02:11:26.382Z,15.25
2022-10-19T02:13:58.999Z,15.24
2022-10-19T02:16:32.975Z,15.19
2022-10-19T02:19:03.250Z,15.22
2022-10-19T02:21:32.931Z,15.20
2022-10-19T02:24:00.947Z,15.23
2022-10-19T02:26:29.265Z,15.25
2022-10-19T02:28:58.260Z,15.24
2022-10-19T02:31:26.888Z,15.14
2022-10-19T02:33:56.363Z,15.05
2022-10-19T02:36:26.332Z,14.99
2022-10-19T02:38:54.999Z,14.97
2022-10-19T02:41:26.320Z,15.02
2022-10-19T02:43:59.507Z,15.02
2022-10-19T02:46:33.625Z,15.00
2022-10-19T02:49:04.922Z,14.92
2022-10-19T02:51:34.869Z,14.93
2022-10-19T02:54:05.228Z,14.91
2022-10-19T02:56:34.273Z,14.91
2022-10-19T02:59:02.377Z,14.90
2022-10-19T03:01:30.325Z,14.90
2022-10-19T03:03:58.231Z,14.88
2022-10-19T03:06:27.652Z,14.85
2022-10-19T03:08:55.644Z,14.84
2022-10-19T03:11:23.712Z,14.84
2022-10-19T03:13:51.614Z,14.80
2022-10-19T03:16:19.657Z,14.80
2022-10-19T03:18:49.338Z,14.82
2022-10-19T03:21:18.107Z,14.83
2022-10-19T03:23:47.489Z,14.84
2022-10-19T03:26:17.358Z,14.84
2022-10-19T03:28:45.368Z,14.83
2022-10-19T03:31:13.398Z,14.80
2022-10-19T03:33:41.315Z,14.79
2022-10-19T03:36:17.592Z,14.78
2022-10-19T03:38:47.005Z,14.73
2022-10-19T03:41:15.087Z,14.71
2022-10-19T03:43:43.111Z,14.67
2022-10-19T03:46:11.009Z,14.66
2022-10-19T03:48:39.127Z,14.68
2022-10-19T03:51:09.316Z,14.68
2022-10-19T03:53:38.069Z,14.71
2022-10-19T03:56:09.707Z,14.69
2022-10-19T03:58:40.023Z,14.68
2022-10-19T04:01:10.580Z,14.72
2022-10-19T04:03:38.998Z,14.70
2022-10-19T04:06:09.154Z,14.74
2022-10-19T04:08:37.405Z,14.67
2022-10-19T04:11:08.510Z,14.65
2022-10-19T04:13:36.959Z,14.66
2022-10-19T04:16:05.527Z,14.66
2022-10-19T04:18:33.660Z,14.64
2022-10-19T04:21:03.450Z,14.66
2022-10-19T04:23:33.516Z,14.61
2022-10-19T04:26:02.018Z,14.57
2022-10-19T04:28:31.787Z,14.57
2022-10-19T04:31:03.390Z,14.52
2022-10-19T04:33:31.314Z,14.53
2022-10-19T04:35:59.953Z,14.56
2022-10-19T04:38:27.963Z,14.55
2022-10-19T04:40:57.119Z,14.56
2022-10-19T04:43:25.017Z,14.58
2022-10-19T04:45:54.296Z,14.57
2022-10-19T04:48:22.322Z,14.55
2022-10-19T04:50:50.232Z,14.56
2022-10-19T04:53:21.217Z,14.56
2022-10-19T04:55:49.262Z,14.58
2022-10-19T04:58:17.223Z,14.57
2022-10-19T05:00:45.256Z,14.53
2022-10-19T05:03:14.768Z,14.49
2022-10-19T05:05:42.701Z,14.45
2022-10-19T05:08:11.780Z,14.40
2022-10-19T05:10:41.274Z,13.90
2022-10-19T05:13:11.116Z,13.76
2022-10-19T05:15:39.018Z,13.79
2022-10-19T05:18:07.131Z,13.84
2022-10-19T05:20:36.444Z,13.97
2022-10-19T05:23:06.432Z,14.04
2022-10-19T05:25:35.341Z,14.09
2022-10-19T05:28:03.315Z,14.09
2022-10-19T05:30:31.853Z,14.04
2022-10-19T05:32:59.818Z,14.04
2022-10-19T05:35:27.810Z,14.06
2022-10-19T05:37:57.122Z,14.08
2022-10-19T05:40:25.104Z,14.09
2022-10-19T05:42:53.028Z,14.10
2022-10-19T05:45:20.987Z,14.11
2022-10-19T05:47:48.888Z,14.12
2022-10-19T05:50:16.848Z,14.08
2022-10-19T05:52:44.812Z,14.07
2022-10-19T05:55:14.128Z,14.08
2022-10-19T05:57:42.148Z,14.02
2022-10-19T06:00:11.748Z,14.00
2022-10-19T06:02:43.186Z,13.96
2022-10-19T06:05:11.231Z,13.99
2022-10-19T06:07:39.133Z,14.12
2022-10-19T06:10:10.022Z,14.20
2022-10-19T06:12:39.530Z,14.24
2022-10-19T06:15:08.394Z,14.24
2022-10-19T06:17:36.535Z,14.25
2022-10-19T06:20:05.612Z,14.23
2022-10-19T06:22:33.529Z,14.15
2022-10-19T06:25:01.612Z,14.12
2022-10-19T06:27:30.615Z,14.12
2022-10-19T06:29:59.934Z,14.17
2022-10-19T06:32:28.499Z,14.22
2022-10-19T06:34:56.789Z,14.26
2022-10-19T06:37:24.830Z,14.28
2022-10-19T06:39:52.752Z,14.29
2022-10-19T06:42:20.789Z,14.31
2022-10-19T06:44:48.718Z,14.32
2022-10-19T06:47:18.035Z,14.35
2022-10-19T06:49:46.336Z,14.39
2022-10-19T06:52:14.296Z,14.46
2022-10-19T06:54:42.226Z,14.43
2022-10-19T06:57:10.156Z,14.42
2022-10-19T06:59:38.069Z,14.50
2022-10-19T07:02:06.147Z,14.58
2022-10-19T07:04:35.560Z,14.64
2022-10-19T07:07:03.745Z,14.67
2022-10-19T07:09:31.862Z,14.63
2022-10-19T07:11:59.819Z,14.66
2022-10-19T07:14:28.629Z,14.61
2022-10-19T07:16:56.759Z,14.51
2022-10-19T07:19:27.854Z,14.54
2022-10-19T07:21:57.204Z,14.76
2022-10-19T07:24:25.461Z,14.86
2022-10-19T07:26:53.391Z,14.92
2022-10-19T07:29:21.330Z,14.98
2022-10-19T07:31:49.316Z,15.05
2022-10-19T07:34:17.821Z,15.11
2022-10-19T07:36:48.116Z,15.14
2022-10-19T07:39:18.237Z,15.17
2022-10-19T07:41:46.724Z,15.24
2022-10-19T07:44:15.900Z,15.37
2022-10-19T07:46:44.307Z,15.38
2022-10-19T07:49:16.277Z,15.39
2022-10-19T07:51:44.391Z,15.40
2022-10-19T07:54:12.397Z,15.45
2022-10-19T07:56:42.457Z,15.45
2022-10-19T07:59:11.551Z,15.48
2022-10-19T08:01:42.218Z,15.49
2022-10-19T08:06:58.222Z,15.37
2022-10-19T08:12:15.842Z,15.57
2022-10-19T08:14:43.831Z,15.62
2022-10-19T08:17:16.662Z,15.71
2022-10-19T08:19:44.815Z,15.84
2022-10-19T08:22:12.978Z,15.87
2022-10-19T08:24:40.928Z,15.85
2022-10-19T08:27:08.983Z,15.93
2022-10-19T08:29:38.325Z,15.99
2022-10-19T08:32:06.537Z,15.96
2022-10-19T08:34:34.618Z,15.97
2022-10-19T08:37:10.205Z,15.99
2022-10-19T08:39:48.033Z,16.01
2022-10-19T08:42:20.459Z,16.10
2022-10-19T08:45:12.098Z,15.96
2022-10-19T08:47:59.327Z,15.87
2022-10-19T08:50:30.583Z,15.92
2022-10-19T08:53:03.009Z,15.93
2022-10-19T08:55:41.181Z,15.92
2022-10-19T08:58:25.613Z,15.95
2022-10-19T09:01:01.628Z,15.95
2022-10-19T09:03:55.075Z,16.06
2022-10-19T09:06:30.271Z,16.22
2022-10-19T09:08:59.298Z,16.32
2022-10-19T09:11:33.664Z,16.42
2022-10-19T09:14:07.684Z,16.54
2022-10-19T09:16:37.134Z,16.59
2022-10-19T09:19:10.897Z,16.58
2022-10-19T09:21:47.623Z,16.52
2022-10-19T09:24:29.217Z,16.58
2022-10-19T09:27:00.053Z,16.62
2022-10-19T09:29:36.445Z,16.49
2022-10-19T09:32:12.727Z,16.55
2022-10-19T09:34:44.644Z,16.71
2022-10-19T09:37:21.253Z,16.83
2022-10-19T09:39:54.928Z,16.84
2022-10-19T09:42:29.138Z,16.88
2022-10-19T09:44:59.462Z,16.92
2022-10-19T09:47:36.305Z,16.98
2022-10-19T09:50:20.194Z,17.04
2022-10-19T09:52:49.304Z,17.10
2022-10-19T09:55:29.864Z,17.13
2022-10-19T09:58:04.043Z,17.09
2022-10-19T10:00:38.518Z,17.13
2022-10-19T10:03:08.876Z,17.24
2022-10-19T10:05:38.965Z,17.33
2022-10-19T10:08:15.662Z,17.39
2022-10-19T10:10:46.865Z,17.45
2022-10-19T10:13:19.261Z,17.47
2022-10-19T10:15:51.068Z,17.46
2022-10-19T10:18:20.589Z,17.46
2022-10-19T10:21:12.967Z,17.55
2022-10-19T10:23:41.110Z,17.64
2022-10-19T10:26:18.772Z,17.66
2022-10-19T10:28:51.680Z,17.69
2022-10-19T10:31:24.826Z,17.80
2022-10-19T10:34:10.875Z,17.91
2022-10-19T10:36:52.537Z,18.01
2022-10-19T10:39:28.970Z,18.07
2022-10-19T10:42:03.154Z,18.10
2022-10-19T10:44:33.484Z,18.13
2022-10-19T10:47:03.676Z,18.20
2022-10-19T10:49:36.811Z,18.26
2022-10-19T10:52:07.578Z,18.36
2022-10-19T10:54:35.480Z,18.35
2022-10-19T10:57:13.847Z,18.32
2022-10-19T10:59:54.340Z,18.27
2022-10-19T11:02:39.340Z,18.38
2022-10-19T11:05:13.098Z,18.54
2022-10-19T11:07:45.628Z,18.63
2022-10-19T11:10:23.411Z,18.66
2022-10-19T11:12:55.299Z,18.70
2022-10-19T11:18:07.325Z,18.87
2022-10-19T11:20:41.645Z,18.99
2022-10-19T11:23:18.923Z,19.02
2022-10-19T11:26:04.400Z,19.07
2022-10-19T11:28:48.657Z,19.13
2022-10-19T11:31:22.381Z,19.27
2022-10-19T11:34:00.404Z,19.34
2022-10-19T11:36:43.367Z,19.39
2022-10-19T11:39:27.495Z,19.45
2022-10-19T11:42:02.405Z,19.52
2022-10-19T11:44:42.935Z,19.52
2022-10-19T11:47:29.379Z,19.48
2022-10-19T11:50:11.259Z,19.57
2022-10-19T11:52:49.728Z,19.58
2022-10-19T11:55:29.489Z,19.62
2022-10-19T11:58:05.752Z,19.65
2022-10-19T12:00:42.578Z,19.69
2022-10-19T12:03:34.790Z,19.66
2022-10-19T12:06:11.926Z,19.70
2022-10-19T12:08:58.526Z,19.77
2022-10-19T12:11:40.908Z,19.75
2022-10-19T12:14:14.636Z,19.80
2022-10-19T12:16:47.521Z,19.81
2022-10-19T12:19:20.897Z,19.81
2022-10-19T12:21:49.729Z,19.78
2022-10-19T12:24:22.762Z,19.76
2022-10-19T12:26:52.315Z,19.78
2022-10-19T12:29:24.148Z,19.78
2022-10-19T12:31:53.505Z,19.86
2022-10-19T12:34:37.629Z,19.91
2022-10-19T12:37:13.839Z,19.89
2022-10-19T12:39:50.931Z,19.88
2022-10-19T12:42:26.000Z,19.79
2022-10-19T12:45:16.905Z,19.70
2022-10-19T12:48:18.960Z,19.67
2022-10-19T12:51:18.208Z,19.82
2022-10-19T12:53:49.161Z,19.98
2022-10-19T12:56:22.121Z,20.15
2022-10-19T12:58:56.683Z,20.27
2022-10-19T13:01:28.257Z,20.28
2022-10-19T13:04:10.138Z,20.39
2022-10-19T13:06:42.295Z,20.34
2022-10-19T13:09:21.623Z,20.17
2022-10-19T13:12:28.541Z,20.18
2022-10-19T13:14:59.184Z,20.27
2022-10-19T13:17:43.850Z,20.43
2022-10-19T13:20:51.784Z,20.67
2022-10-19T13:23:39.831Z,20.75
2022-10-19T13:26:33.959Z,20.78
2022-10-19T13:29:02.116Z,20.84
2022-10-19T13:31:37.023Z,20.99
2022-10-19T13:34:11.964Z,21.15
2022-10-19T13:36:40.324Z,21.22
2022-10-19T13:39:15.100Z,21.37
2022-10-19T13:41:53.760Z,21.45
2022-10-19T13:44:29.065Z,21.62
2022-10-19T13:47:16.970Z,21.68
2022-10-19T13:50:07.169Z,21.81
2022-10-19T13:53:13.949Z,21.79
2022-10-19T13:56:04.284Z,21.77
2022-10-19T13:59:03.268Z,21.84
2022-10-19T14:01:45.059Z,21.92
2022-10-19T14:04:28.152Z,21.98
2022-10-19T14:07:00.939Z,21.88
2022-10-19T14:09:58.657Z,21.78
2022-10-19T14:12:28.943Z,21.76
2022-10-19T14:14:57.445Z,21.81
2022-10-19T14:17:28.689Z,21.93
2022-10-19T14:19:59.933Z,22.10
2022-10-19T14:22:30.961Z,22.12
2022-10-19T14:25:06.072Z,22.19
2022-10-19T14:27:35.752Z,22.27
2022-10-19T14:30:05.256Z,22.39
2022-10-19T14:32:35.545Z,22.47
2022-10-19T14:35:19.936Z,22.62
2022-10-19T14:37:48.551Z,22.68
2022-10-19T14:40:29.206Z,22.65
2022-10-19T14:42:58.499Z,22.64
2022-10-19T14:45:29.002Z,22.37
2022-10-19T14:48:00.006Z,22.23
2022-10-19T14:53:23.605Z,21.88
2022-10-19T14:55:54.812Z,21.43
2022-10-19T14:58:24.754Z,21.22
2022-10-19T15:00:54.605Z,21.09
2022-10-19T15:03:25.739Z,21.11
2022-10-19T15:05:57.917Z,21.19
2022-10-19T15:08:33.900Z,21.26
2022-10-19T15:11:01.980Z,21.31
2022-10-19T15:13:34.628Z,21.38
2022-10-19T15:16:02.618Z,21.35
2022-10-19T15:18:48.894Z,21.45
2022-10-19T15:21:21.072Z,21.47
2022-10-19T15:23:49.895Z,21.53
2022-10-19T15:26:20.985Z,21.56
2022-10-19T15:28:49.692Z,21.56
2022-10-19T15:31:20.261Z,21.48
2022-10-19T15:33:51.450Z,21.42
2022-10-19T15:36:22.321Z,21.43
2022-10-19T15:39:17.674Z,21.44
2022-10-19T15:41:48.533Z,21.51
2022-10-19T15:44:33.117Z,21.48
2022-10-19T15:47:20.713Z,21.32
2022-10-19T15:50:02.287Z,21.22
2022-10-19T15:52:34.452Z,21.09
2022-10-19T15:55:02.387Z,20.83
2022-10-19T15:57:33.691Z,20.70
2022-10-19T16:00:08.229Z,20.65
2022-10-19T16:02:36.298Z,20.58
2022-10-19T16:05:04.428Z,20.50
2022-10-19T16:07:37.641Z,20.38
2022-10-19T16:10:07.257Z,20.27
2022-10-19T16:12:35.207Z,20.18
2022-10-19T16:15:03.192Z,20.12
2022-10-19T16:17:31.111Z,19.98
2022-10-19T16:19:59.071Z,19.85
2022-10-19T16:22:27.015Z,19.75
2022-10-19T16:24:56.331Z,19.67
2022-10-19T16:27:24.324Z,19.60
2022-10-19T16:29:52.274Z,19.50
2022-10-19T16:32:20.154Z,19.40
2022-10-19T16:34:48.085Z,19.21
2022-10-19T16:37:16.016Z,19.17
2022-10-19T16:39:43.948Z,19.07
2022-10-19T16:42:13.212Z,18.91
2022-10-19T16:44:41.477Z,18.82
2022-10-19T16:47:09.442Z,18.81
2022-10-19T16:49:37.412Z,18.78
2022-10-19T16:52:06.208Z,18.79
2022-10-19T16:54:34.151Z,18.76
2022-10-19T16:57:05.749Z,18.82
2022-10-19T16:59:38.187Z,18.87
2022-10-19T17:02:06.082Z,18.88
2022-10-19T17:04:34.136Z,18.82
2022-10-19T17:07:02.105Z,18.72
2022-10-19T17:09:41.363Z,18.69
2022-10-19T17:12:10.326Z,18.64
2022-10-19T17:14:41.113Z,18.64
2022-10-19T17:17:10.318Z,18.59
2022-10-19T17:19:38.815Z,18.50
2022-10-19T17:22:06.863Z,18.44
2022-10-19T17:24:34.913Z,18.39
2022-10-19T17:27:03.969Z,18.37
2022-10-19T17:29:32.162Z,18.28
2022-10-19T17:32:01.515Z,18.33
2022-10-19T17:34:29.604Z,18.26
2022-10-19T17:36:57.612Z,18.21
2022-10-19T17:39:29.094Z,18.16
2022-10-19T17:42:01.923Z,18.07
2022-10-19T17:44:31.609Z,18.08
2022-10-19T17:47:01.223Z,18.04
2022-10-19T17:49:30.045Z,18.00
2022-10-19T17:51:58.792Z,17.98
2022-10-19T17:54:26.869Z,17.92
2022-10-19T17:56:54.865Z,17.87
2022-10-19T17:59:34.713Z,17.80
2022-10-19T18:02:11.543Z,17.77
2022-10-19T18:04:39.700Z,17.77
2022-10-19T18:07:07.624Z,17.68
2022-10-19T18:09:35.641Z,17.52
2022-10-19T18:12:06.396Z,17.54
2022-10-19T18:14:35.197Z,17.52
2022-10-19T18:17:03.149Z,17.54
2022-10-19T18:19:32.639Z,17.52
2022-10-19T18:22:00.582Z,17.48
2022-10-19T18:24:28.632Z,17.54
2022-10-19T18:26:56.620Z,17.56
2022-10-19T18:29:26.619Z,17.55
2022-10-19T18:31:55.153Z,17.48
2022-10-19T18:34:25.064Z,17.41
2022-10-19T18:36:55.302Z,17.41
2022-10-19T18:39:23.812Z,17.37
2022-10-19T18:41:54.507Z,17.31
2022-10-19T18:44:26.603Z,17.29
2022-10-19T18:46:56.583Z,17.29
2022-10-19T18:49:25.134Z,17.27
2022-10-19T18:51:55.844Z,17.19
2022-10-19T18:54:24.618Z,17.18
2022-10-19T18:56:52.651Z,17.18
2022-10-19T18:59:20.650Z,16.74
2022-10-19T19:01:48.659Z,16.53
2022-10-19T19:04:16.659Z,16.66
2022-10-19T19:06:44.581Z,16.82
2022-10-19T19:09:14.678Z,16.90
2022-10-19T19:11:42.747Z,17.02
2022-10-19T19:14:13.940Z,17.05
2022-10-19T19:16:44.345Z,17.11
2022-10-19T19:19:13.793Z,17.06
2022-10-19T19:21:44.246Z,17.03
2022-10-19T19:24:16.178Z,16.95
2022-10-19T19:26:46.758Z,16.93
2022-10-19T19:29:14.787Z,16.91
2022-10-19T19:31:42.796Z,16.89
2022-10-19T19:34:11.072Z,16.87
2022-10-19T19:39:16.501Z,16.82
2022-10-19T19:41:44.484Z,16.79
2022-10-19T19:44:12.587Z,16.79
2022-10-19T19:46:40.689Z,16.76
2022-10-19T19:49:08.621Z,16.72
2022-10-19T19:51:36.654Z,16.49
2022-10-19T19:54:06.449Z,16.37
2022-10-19T19:56:37.295Z,16.44
2022-10-19T19:59:05.233Z,16.58
2022-10-19T20:01:33.932Z,16.56
2022-10-19T20:06:37.196Z,16.56
2022-10-19T20:09:05.940Z,16.52
2022-10-19T20:11:39.698Z,16.46
2022-10-19T20:14:09.142Z,16.38
2022-10-19T20:16:37.395Z,16.36
2022-10-19T20:19:08.417Z,16.36
2022-10-19T20:21:36.747Z,16.32
2022-10-19T20:24:05.174Z,16.32
2022-10-19T20:26:33.112Z,16.33
2022-10-19T20:29:03.003Z,16.32
2022-10-19T20:31:31.401Z,16.33
2022-10-19T20:33:59.367Z,16.36
2022-10-19T20:36:27.687Z,16.34
2022-10-19T20:38:57.610Z,16.22
2022-10-19T20:41:27.128Z,16.05
2022-10-19T20:43:55.744Z,15.82
2022-10-19T20:46:27.903Z,15.77
2022-10-19T20:48:56.341Z,15.90
2022-10-19T20:51:30.609Z,15.92
2022-10-19T20:54:01.706Z,15.91
2022-10-19T20:56:31.955Z,15.87
2022-10-19T21:01:38.381Z,15.67
2022-10-19T21:04:08.879Z,15.72
2022-10-19T21:06:40.625Z,15.82
2022-10-19T21:09:09.324Z,15.92
2022-10-19T21:11:38.950Z,15.93
2022-10-19T21:14:09.068Z,15.87
2022-10-19T21:16:38.934Z,15.83
2022-10-19T21:19:09.334Z,15.85
2022-10-19T21:21:39.104Z,15.85
2022-10-19T21:24:09.937Z,15.82
2022-10-19T21:26:38.756Z,15.84
2022-10-19T21:29:09.624Z,15.82
2022-10-19T21:31:42.183Z,15.80
2022-10-19T21:34:15.057Z,15.78
2022-10-19T21:36:43.179Z,15.80
2022-10-19T21:39:11.155Z,15.78
2022-10-19T21:41:39.144Z,15.75
2022-10-19T21:44:07.120Z,15.69
2022-10-19T21:46:35.501Z,15.67
2022-10-19T21:49:04.815Z,15.65
2022-10-19T21:51:37.468Z,15.63
2022-10-19T21:54:07.093Z,15.62
2022-10-19T21:56:35.578Z,15.58
2022-10-19T21:59:03.998Z,15.56
2022-10-19T22:01:38.558Z,15.57
2022-10-19T22:04:13.911Z,15.58
2022-10-19T22:06:42.748Z,15.57
2022-10-19T22:09:13.758Z,15.58
2022-10-19T22:11:41.846Z,15.57
2022-10-19T22:14:10.957Z,15.55
2022-10-19T22:16:38.920Z,15.51
2022-10-19T22:19:07.401Z,15.53
2022-10-19T22:24:08.372Z,15.52
2022-10-19T22:26:38.604Z,15.49
2022-10-19T22:29:07.754Z,15.43
2022-10-19T22:31:37.199Z,15.43
2022-10-19T22:34:07.609Z,15.40
2022-10-19T22:36:37.941Z,15.43
2022-10-19T22:39:07.110Z,15.41
2022-10-19T22:42:30.339Z,15.41
2022-10-19T22:45:16.830Z,15.39
2022-10-19T22:47:44.777Z,15.36
2022-10-19T22:50:12.839Z,15.34
2022-10-19T22:52:42.186Z,15.31
2022-10-19T22:55:10.535Z,15.27
2022-10-19T22:57:38.495Z,15.27
2022-10-19T23:00:07.545Z,15.28
2022-10-19T23:02:35.763Z,15.29
2022-10-19T23:05:04.065Z,15.28
2022-10-19T23:07:33.517Z,15.27
2022-10-19T23:10:03.191Z,15.21
2022-10-19T23:12:31.287Z,15.13
2022-10-19T23:14:59.177Z,15.09
2022-10-19T23:17:27.110Z,15.06
2022-10-19T23:19:54.999Z,15.11
2022-10-19T23:22:23.129Z,15.13
2022-10-19T23:24:51.044Z,15.07
2022-10-19T23:27:21.227Z,14.89
2022-10-19T23:29:49.304Z,14.94
2022-10-19T23:32:17.255Z,15.01
2022-10-19T23:34:47.547Z,15.02
2022-10-19T23:37:16.557Z,14.92
2022-10-19T23:39:44.489Z,14.91
2022-10-19T23:42:12.424Z,14.92
2022-10-19T23:44:41.737Z,14.91
2022-10-19T23:47:09.733Z,14.55
2022-10-19T23:49:37.671Z,14.48
2022-10-19T23:52:05.940Z,14.57
2022-10-19T23:54:33.864Z,14.53
2022-10-19T23:57:01.764Z,14.54
2022-10-19T23:59:29.842Z,14.57
